Time;durP1;ratioP1;P1;durP2;ratioP2;P2;SDS_P1;SDS_P2;PMS_P1;PMS_P2;Temp;Humidity;BMP_temperature;BMP_pressure;BME280_temperature;BME280_humidity;BME280_pressure;Samples;Min_cycle;Max_cycle;Signal;HPM_P1;HPM_P2
2024/04/10 00:00:45;;;;;;;11.70;6.28;;;;;;;;;;1924801;74;21038;-48
2024/04/10 00:03:16;;;;;;;9.03;6.42;;;;;;;;;;1924813;74;21092;-49
2024/04/10 00:05:44;;;;;;;14.07;7.22;;;;;;;;;;1924790;74;21590;-49
2024/04/10 00:08:13;;;;;;;10.80;6.92;;;;;;;;;;1924807;74;21073;-47
2024/04/10 00:10:41;;;;;;;11.12;6.53;;;;;;;;;;1924734;74;21006;-48
2024/04/10 00:13:10;;;;;;;9.78;6.58;;;;;;;;;;1924937;74;21105;-50
2024/04/10 00:15:39;;;;;;;12.33;5.95;;;;;;;;;;1924926;74;21077;-50
2024/04/10 00:18:07;;;;;;;8.60;6.08;;;;;;;;;;1924902;74;21011;-50
2024/04/10 00:20:36;;;;;;;11.43;6.95;;;;;;;;;;1924926;74;21100;-51
2024/04/10 00:23:05;;;;;;;9.73;5.72;;;;;;;;;;1924834;74;21022;-49
2024/04/10 00:25:33;;;;;;;7.50;5.78;;;;;;;;;;1924871;74;21035;-49
2024/04/10 00:28:02;;;;;;;10.38;6.47;;;;;;;;;;1924781;74;21122;-48
2024/04/10 00:30:31;;;;;;;9.65;6.35;;;;;;;;;;1924752;74;21030;-48
2024/04/10 00:33:00;;;;;;;10.70;7.08;;;;;;;;;;1913617;74;21106;-49
2024/04/10 00:35:29;;;;;;;13.15;7.40;;;;;;;;;;1905252;75;21066;-48
2024/04/10 00:37:58;;;;;;;12.37;7.00;;;;;;;;;;1905286;75;21090;-48
2024/04/10 00:40:27;;;;;;;11.88;7.35;;;;;;;;;;1905321;75;20984;-48
2024/04/10 00:42:56;;;;;;;12.95;7.20;;;;;;;;;;1905440;75;21004;-48
2024/04/10 00:45:25;;;;;;;11.20;7.15;;;;;;;;;;1905330;75;21037;-48
2024/04/10 00:47:53;;;;;;;12.35;6.35;;;;;;;;;;1905325;75;21023;-48
2024/04/10 00:50:22;;;;;;;8.38;5.90;;;;;;;;;;1905435;75;21036;-48
2024/04/10 00:52:50;;;;;;;16.95;8.33;;;;;;;;;;1905445;74;21081;-48
2024/04/10 00:55:21;;;;;;;10.53;6.60;;;;;;;;;;1905323;75;21007;-48
2024/04/10 00:57:50;;;;;;;13.65;7.72;;;;;;;;;;1905349;75;21039;-48
2024/04/10 01:00:19;;;;;;;13.15;7.92;;;;;;;;;;1905378;75;21012;-48
2024/04/10 01:02:48;;;;;;;13.10;8.83;;;;;;;;;;1905344;74;21065;-48
2024/04/10 01:05:16;;;;;;;13.65;7.53;;;;;;;;;;1905349;75;21027;-49
2024/04/10 01:07:45;;;;;;;13.62;7.42;;;;;;;;;;1905491;75;21071;-49
2024/04/10 01:10:13;;;;;;;14.15;7.75;;;;;;;;;;1905350;75;21024;-49
2024/04/10 01:12:45;;;;;;;15.58;7.35;;;;;;;;;;1905305;75;21296;-48
2024/04/10 01:15:12;;;;;;;22.10;7.83;;;;;;;;;;1905349;75;21598;-48
2024/04/10 01:17:41;;;;;;;13.18;8.00;;;;;;;;;;1905345;75;21044;-49
2024/04/10 01:20:10;;;;;;;13.78;7.85;;;;;;;;;;1905403;75;21031;-48
2024/04/10 01:22:39;;;;;;;28.02;8.23;;;;;;;;;;1905353;75;21023;-49
2024/04/10 01:25:07;;;;;;;16.35;7.47;;;;;;;;;;1905395;75;21027;-48
2024/04/10 01:27:36;;;;;;;16.20;8.90;;;;;;;;;;1905322;75;21024;-49
2024/04/10 01:30:05;;;;;;;13.38;7.62;;;;;;;;;;1905390;75;21004;-48
2024/04/10 01:32:34;;;;;;;12.40;8.58;;;;;;;;;;1908885;74;21022;-48
2024/04/10 01:35:02;;;;;;;17.10;9.00;;;;;;;;;;1924739;74;21019;-48
2024/04/10 01:37:31;;;;;;;15.98;8.05;;;;;;;;;;1924852;74;21022;-48
2024/04/10 01:39:59;;;;;;;17.00;8.43;;;;;;;;;;1924781;74;20995;-48
2024/04/10 01:42:28;;;;;;;16.20;8.70;;;;;;;;;;1924764;74;21207;-48
2024/04/10 01:44:56;;;;;;;14.58;8.40;;;;;;;;;;1924740;74;21088;-48
2024/04/10 01:47:25;;;;;;;15.88;8.18;;;;;;;;;;1924766;74;21031;-47
2024/04/10 01:49:54;;;;;;;12.45;7.62;;;;;;;;;;1924783;74;21039;-48
2024/04/10 01:52:23;;;;;;;16.97;8.30;;;;;;;;;;1924737;74;21136;-48
2024/04/10 01:54:52;;;;;;;12.33;8.10;;;;;;;;;;1924813;74;21104;-48
2024/04/10 01:57:22;;;;;;;12.28;7.78;;;;;;;;;;1924882;74;21073;-48
2024/04/10 01:59:50;;;;;;;15.18;7.92;;;;;;;;;;1924883;74;21097;-49
2024/04/10 02:02:19;;;;;;;18.80;9.68;;;;;;;;;;1924821;74;21069;-48
2024/04/10 02:04:48;;;;;;;16.70;8.38;;;;;;;;;;1924743;74;21027;-48
2024/04/10 02:07:17;;;;;;;14.47;8.20;;;;;;;;;;1924679;74;21096;-48
2024/04/10 02:09:45;;;;;;;14.85;8.33;;;;;;;;;;1924727;74;21006;-49
2024/04/10 02:12:14;;;;;;;15.68;8.10;;;;;;;;;;1924698;74;21080;-48
2024/04/10 02:14:43;;;;;;;24.98;9.15;;;;;;;;;;1924821;74;21156;-48
2024/04/10 02:17:11;;;;;;;16.00;8.60;;;;;;;;;;1924883;74;21085;-49
2024/04/10 02:19:40;;;;;;;16.40;8.45;;;;;;;;;;1924683;74;21100;-48
2024/04/10 02:22:08;;;;;;;14.40;9.10;;;;;;;;;;1924712;74;21039;-48
2024/04/10 02:24:37;;;;;;;13.68;8.58;;;;;;;;;;1924765;74;21027;-48
2024/04/10 02:27:06;;;;;;;17.25;7.78;;;;;;;;;;1924700;74;21025;-48
2024/04/10 02:29:35;;;;;;;12.60;7.72;;;;;;;;;;1924732;74;21029;-48
2024/04/10 02:32:04;;;;;;;12.10;7.37;;;;;;;;;;1924670;74;21070;-48
2024/04/10 02:34:34;;;;;;;17.27;8.85;;;;;;;;;;1909352;74;21064;-48
2024/04/10 02:37:03;;;;;;;15.43;8.68;;;;;;;;;;1905335;75;21007;-48
2024/04/10 02:39:31;;;;;;;15.55;8.28;;;;;;;;;;1905301;75;21000;-48
2024/04/10 02:42:00;;;;;;;11.10;7.45;;;;;;;;;;1905332;75;20999;-47
2024/04/10 02:44:29;;;;;;;16.27;9.30;;;;;;;;;;1905364;75;21028;-48
2024/04/10 02:46:57;;;;;;;15.93;8.00;;;;;;;;;;1905358;75;21141;-49
2024/04/10 02:49:26;;;;;;;19.37;9.33;;;;;;;;;;1905322;75;21031;-48
2024/04/10 02:51:55;;;;;;;14.60;8.98;;;;;;;;;;1905275;75;21008;-48
2024/04/10 02:54:24;;;;;;;23.60;8.18;;;;;;;;;;1905308;75;21163;-48
2024/04/10 02:56:53;;;;;;;24.18;9.05;;;;;;;;;;1905254;75;21039;-48
2024/04/10 02:59:22;;;;;;;14.75;8.15;;;;;;;;;;1905293;75;21023;-48
2024/04/10 03:01:51;;;;;;;18.12;8.03;;;;;;;;;;1905290;75;20999;-49
2024/04/10 03:04:19;;;;;;;22.25;7.47;;;;;;;;;;1905283;75;21004;-48
2024/04/10 03:06:48;;;;;;;31.37;8.80;;;;;;;;;;1905319;75;21027;-47
2024/04/10 03:09:17;;;;;;;14.83;8.25;;;;;;;;;;1905393;75;21016;-48
2024/04/10 03:11:46;;;;;;;29.40;8.55;;;;;;;;;;1905243;75;21027;-48
2024/04/10 03:14:15;;;;;;;22.50;9.03;;;;;;;;;;1905418;75;21081;-48
2024/04/10 03:16:45;;;;;;;22.62;7.97;;;;;;;;;;1905248;75;21462;-48
2024/04/10 03:19:15;;;;;;;32.85;9.55;;;;;;;;;;1905274;75;21062;-48
2024/04/10 03:21:43;;;;;;;17.00;8.70;;;;;;;;;;1905245;75;21043;-48
2024/04/10 03:24:12;;;;;;;15.32;9.00;;;;;;;;;;1905325;75;20999;-48
2024/04/10 03:26:41;;;;;;;14.90;8.30;;;;;;;;;;1905283;75;21039;-48
2024/04/10 03:29:09;;;;;;;21.33;9.48;;;;;;;;;;1905301;75;21109;-48
2024/04/10 03:31:38;;;;;;;27.17;10.20;;;;;;;;;;1905206;75;21070;-48
2024/04/10 03:34:07;;;;;;;24.82;8.98;;;;;;;;;;1905298;74;21051;-49
2024/04/10 03:36:36;;;;;;;19.48;8.18;;;;;;;;;;1905334;75;21027;-48
2024/04/10 03:39:04;;;;;;;28.55;8.75;;;;;;;;;;1905512;75;21101;-49
2024/04/10 03:41:34;;;;;;;21.70;8.45;;;;;;;;;;1905382;75;21188;-50
2024/04/10 03:44:05;;;;;;;17.23;8.55;;;;;;;;;;1905489;75;21337;-47
2024/04/10 03:46:33;;;;;;;20.40;10.40;;;;;;;;;;1905374;75;21062;-48
2024/04/10 03:49:02;;;;;;;15.68;8.15;;;;;;;;;;1905522;75;21077;-48
2024/04/10 03:51:31;;;;;;;27.15;9.95;;;;;;;;;;1905351;75;21028;-48
2024/04/10 03:54:00;;;;;;;25.08;9.83;;;;;;;;;;1905550;75;21015;-48
2024/04/10 03:56:30;;;;;;;24.80;11.33;;;;;;;;;;1905306;74;21092;-48
2024/04/10 03:58:59;;;;;;;16.75;9.28;;;;;;;;;;1905449;75;21455;-49
2024/04/10 04:01:27;;;;;;;14.45;7.90;;;;;;;;;;1905371;75;21096;-49
2024/04/10 04:04:02;;;;;;;18.45;8.15;;;;;;;;;;1905403;75;21007;-48
2024/04/10 04:06:26;;;;;;;14.65;7.92;;;;;;;;;;1904929;74;21016;-48
2024/04/10 04:08:55;;;;;;;13.20;7.47;;;;;;;;;;1905425;75;21128;-48
2024/04/10 04:11:24;;;;;;;19.12;9.03;;;;;;;;;;1905355;75;21063;-48
2024/04/10 04:13:53;;;;;;;15.43;8.38;;;;;;;;;;1905441;75;21097;-51
2024/04/10 04:16:21;;;;;;;17.62;8.33;;;;;;;;;;1905329;75;21027;-51
2024/04/10 04:18:50;;;;;;;18.45;7.67;;;;;;;;;;1905417;75;21127;-51
2024/04/10 04:21:18;;;;;;;19.30;8.15;;;;;;;;;;1905325;75;21084;-50
2024/04/10 04:23:48;;;;;;;22.75;9.13;;;;;;;;;;1905315;75;21061;-49
2024/04/10 04:26:17;;;;;;;20.80;9.03;;;;;;;;;;1905345;75;21012;-49
2024/04/10 04:28:46;;;;;;;19.10;7.87;;;;;;;;;;1905390;75;21000;-49
2024/04/10 04:31:17;;;;;;;19.85;7.53;;;;;;;;;;1905351;75;21016;-49
2024/04/10 04:33:46;;;;;;;15.72;7.25;;;;;;;;;;1905192;75;21095;-48
2024/04/10 04:36:15;;;;;;;12.70;6.70;;;;;;;;;;1905255;75;21035;-49
2024/04/10 04:38:43;;;;;;;15.15;6.55;;;;;;;;;;1905322;75;21058;-49
2024/04/10 04:41:12;;;;;;;15.95;7.53;;;;;;;;;;1905313;75;21089;-48
2024/04/10 04:43:41;;;;;;;14.43;7.08;;;;;;;;;;1905313;75;21097;-48
2024/04/10 04:46:12;;;;;;;14.05;7.78;;;;;;;;;;1905315;75;21097;-48
2024/04/10 04:48:41;;;;;;;12.33;6.87;;;;;;;;;;1905415;75;20996;-49
2024/04/10 04:51:11;;;;;;;14.05;7.40;;;;;;;;;;1905338;75;21027;-48
2024/04/10 04:53:40;;;;;;;12.03;7.12;;;;;;;;;;1905378;75;20979;-49
2024/04/10 04:56:11;;;;;;;13.25;7.25;;;;;;;;;;1905266;75;21099;-48
2024/04/10 04:58:39;;;;;;;12.58;6.78;;;;;;;;;;1905357;75;21027;-48
2024/04/10 05:01:08;;;;;;;10.75;6.30;;;;;;;;;;1905295;75;21022;-48
2024/04/10 05:06:24;;;;;;;15.70;7.85;;;;;;;;;;1905351;75;21055;-48
2024/04/10 05:08:52;;;;;;;9.08;5.72;;;;;;;;;;1905309;75;21107;-48
2024/04/10 05:11:21;;;;;;;12.75;6.40;;;;;;;;;;1905318;75;21087;-49
2024/04/10 05:13:49;;;;;;;17.57;7.17;;;;;;;;;;1905308;75;21058;-49
2024/04/10 05:16:18;;;;;;;11.12;6.25;;;;;;;;;;1905219;75;21024;-48
2024/04/10 05:18:47;;;;;;;15.98;6.17;;;;;;;;;;1905305;75;21085;-48
2024/04/10 05:21:15;;;;;;;15.70;6.45;;;;;;;;;;1905258;75;21082;-49
2024/04/10 05:23:46;;;;;;;9.35;6.00;;;;;;;;;;1905322;74;21059;-49
2024/04/10 05:26:14;;;;;;;10.75;5.08;;;;;;;;;;1905221;75;21536;-48
2024/04/10 05:28:42;;;;;;;12.28;6.03;;;;;;;;;;1905286;75;21008;-48
2024/04/10 05:31:11;;;;;;;10.60;6.05;;;;;;;;;;1905409;75;21028;-48
2024/04/10 05:33:40;;;;;;;10.98;5.85;;;;;;;;;;1905324;74;21028;-49
2024/04/10 05:36:09;;;;;;;11.90;5.92;;;;;;;;;;1905368;75;21032;-49
2024/04/10 05:38:38;;;;;;;10.28;5.30;;;;;;;;;;1905341;75;21031;-48
2024/04/10 05:41:07;;;;;;;10.40;5.70;;;;;;;;;;1905430;75;21039;-48
2024/04/10 05:43:35;;;;;;;9.50;6.30;;;;;;;;;;1905430;75;21011;-50
2024/04/10 05:46:03;;;;;;;15.58;5.45;;;;;;;;;;1905287;75;21075;-49
2024/04/10 05:48:32;;;;;;;11.63;5.95;;;;;;;;;;1905324;75;21023;-49
2024/04/10 05:51:00;;;;;;;12.45;5.22;;;;;;;;;;1905287;75;21075;-49
2024/04/10 05:53:31;;;;;;;8.18;5.10;;;;;;;;;;1905312;75;21007;-49
2024/04/10 05:56:00;;;;;;;13.83;5.08;;;;;;;;;;1905368;75;21485;-48
2024/04/10 05:58:29;;;;;;;11.33;6.20;;;;;;;;;;1905326;75;21015;-50
2024/04/10 06:00:57;;;;;;;7.97;4.53;;;;;;;;;;1905259;75;21015;-48
2024/04/10 06:03:26;;;;;;;11.50;5.33;;;;;;;;;;1905292;75;20999;-48
2024/04/10 06:05:54;;;;;;;8.03;5.53;;;;;;;;;;1905422;75;21071;-48
2024/04/10 06:08:23;;;;;;;11.03;5.80;;;;;;;;;;1905247;75;21043;-49
2024/04/10 06:10:52;;;;;;;8.60;5.55;;;;;;;;;;1905284;75;21082;-49
2024/04/10 06:13:21;;;;;;;13.40;5.85;;;;;;;;;;1905236;75;20980;-48
2024/04/10 06:15:50;;;;;;;11.30;5.58;;;;;;;;;;1905188;75;21085;-48
2024/04/10 06:18:19;;;;;;;13.28;6.55;;;;;;;;;;1904776;74;21039;-48
2024/04/10 06:20:48;;;;;;;10.93;6.22;;;;;;;;;;1905273;75;21012;-48
2024/04/10 06:23:16;;;;;;;10.95;6.37;;;;;;;;;;1905249;75;21036;-48
2024/04/10 06:25:46;;;;;;;13.13;6.30;;;;;;;;;;1905197;75;21101;-48
2024/04/10 06:28:15;;;;;;;15.65;6.40;;;;;;;;;;1905059;74;20988;-49
2024/04/10 06:30:43;;;;;;;13.40;6.47;;;;;;;;;;1905245;75;21027;-49
2024/04/10 06:33:13;;;;;;;10.13;6.45;;;;;;;;;;1905257;75;21101;-49
2024/04/10 06:35:42;;;;;;;10.40;6.35;;;;;;;;;;1913208;74;21445;-47
2024/04/10 06:38:11;;;;;;;17.37;6.97;;;;;;;;;;1924750;74;21077;-49
2024/04/10 06:40:41;;;;;;;13.22;6.28;;;;;;;;;;1923325;74;21564;-49
2024/04/10 06:43:10;;;;;;;10.50;6.28;;;;;;;;;;1924504;74;21526;-49
2024/04/10 06:45:39;;;;;;;10.75;6.17;;;;;;;;;;1924657;74;21096;-48
2024/04/10 06:48:08;;;;;;;13.58;6.17;;;;;;;;;;1924798;74;21097;-48
2024/04/10 06:50:36;;;;;;;13.13;6.05;;;;;;;;;;1924703;74;21035;-48
2024/04/10 06:53:09;;;;;;;9.73;5.75;;;;;;;;;;1924617;74;21097;-50
2024/04/10 06:55:35;;;;;;;17.17;7.05;;;;;;;;;;1924461;74;21545;-50
2024/04/10 06:58:04;;;;;;;11.73;7.28;;;;;;;;;;1924693;74;21061;-49
2024/04/10 07:00:33;;;;;;;11.97;6.25;;;;;;;;;;1924711;74;21054;-48
2024/04/10 07:03:02;;;;;;;14.30;7.65;;;;;;;;;;1924698;74;21012;-51
2024/04/10 07:05:31;;;;;;;12.78;5.70;;;;;;;;;;1924742;74;21031;-50
2024/04/10 07:07:59;;;;;;;7.00;5.40;;;;;;;;;;1924802;74;21018;-49
2024/04/10 07:10:28;;;;;;;14.38;6.40;;;;;;;;;;1924688;74;21027;-49
2024/04/10 07:12:56;;;;;;;13.03;6.47;;;;;;;;;;1924739;74;21558;-49
2024/04/10 07:15:25;;;;;;;12.18;7.35;;;;;;;;;;1924828;74;21070;-49
2024/04/10 07:17:54;;;;;;;13.60;6.83;;;;;;;;;;1924921;74;21068;-50
2024/04/10 07:20:23;;;;;;;18.73;7.62;;;;;;;;;;1924757;74;21085;-49
2024/04/10 07:22:51;;;;;;;10.38;5.83;;;;;;;;;;1924886;74;21038;-49
2024/04/10 07:25:20;;;;;;;8.03;5.65;;;;;;;;;;1924804;74;21011;-50
2024/04/10 07:27:49;;;;;;;18.30;7.78;;;;;;;;;;1924898;74;21088;-50
2024/04/10 07:30:17;;;;;;;14.30;7.17;;;;;;;;;;1924832;74;21088;-50
2024/04/10 07:32:46;;;;;;;9.75;5.78;;;;;;;;;;1924886;74;21018;-50
2024/04/10 07:35:15;;;;;;;10.58;6.67;;;;;;;;;;1924366;74;21113;-49
2024/04/10 07:37:43;;;;;;;10.63;6.47;;;;;;;;;;1905468;75;21008;-49
2024/04/10 07:40:15;;;;;;;11.40;7.45;;;;;;;;;;1905438;75;21027;-50
2024/04/10 07:42:42;;;;;;;13.15;6.87;;;;;;;;;;1905348;75;21461;-50
2024/04/10 07:45:11;;;;;;;17.30;7.58;;;;;;;;;;1905346;74;21623;-49
2024/04/10 07:47:39;;;;;;;9.88;7.30;;;;;;;;;;1905413;75;21035;-49
2024/04/10 07:50:08;;;;;;;17.45;7.87;;;;;;;;;;1905385;75;21012;-49
2024/04/10 07:52:37;;;;;;;29.65;8.95;;;;;;;;;;1905475;75;21028;-48
2024/04/10 07:55:06;;;;;;;16.75;8.43;;;;;;;;;;1905330;75;21031;-51
2024/04/10 07:57:34;;;;;;;8.63;5.85;;;;;;;;;;1905332;75;21083;-50
2024/04/10 08:00:03;;;;;;;13.53;7.65;;;;;;;;;;1905376;75;21015;-49
2024/04/10 08:02:34;;;;;;;12.80;7.85;;;;;;;;;;1904898;74;21068;-49
2024/04/10 08:05:02;;;;;;;11.22;8.65;;;;;;;;;;1905366;75;21035;-49
2024/04/10 08:07:31;;;;;;;15.18;7.45;;;;;;;;;;1905386;75;21083;-50
2024/04/10 08:10:00;;;;;;;17.55;8.35;;;;;;;;;;1905336;75;21024;-50
2024/04/10 08:12:28;;;;;;;12.73;6.87;;;;;;;;;;1905359;75;21035;-52
2024/04/10 08:14:57;;;;;;;14.58;8.18;;;;;;;;;;1905350;75;21024;-51
2024/04/10 08:17:25;;;;;;;12.03;8.10;;;;;;;;;;1905348;75;21047;-51
2024/04/10 08:19:54;;;;;;;11.88;7.03;;;;;;;;;;1905410;75;21085;-51
2024/04/10 08:22:23;;;;;;;11.60;7.78;;;;;;;;;;1905337;75;21032;-51
2024/04/10 08:24:52;;;;;;;11.60;7.15;;;;;;;;;;1905295;75;21031;-49
2024/04/10 08:27:20;;;;;;;11.78;6.90;;;;;;;;;;1905583;75;21081;-49
2024/04/10 08:29:49;;;;;;;16.55;8.50;;;;;;;;;;1905374;75;21031;-49
2024/04/10 08:32:18;;;;;;;14.90;7.03;;;;;;;;;;1905300;75;21097;-49
2024/04/10 08:34:46;;;;;;;18.48;8.80;;;;;;;;;;1905174;75;21032;-51
2024/04/10 08:37:15;;;;;;;23.57;8.78;;;;;;;;;;1905204;75;21087;-51
2024/04/10 08:39:45;;;;;;;15.58;8.50;;;;;;;;;;1905395;75;21004;-49
2024/04/10 08:42:15;;;;;;;13.40;8.03;;;;;;;;;;1905226;75;21007;-49
2024/04/10 08:44:44;;;;;;;12.55;7.67;;;;;;;;;;1905179;75;21007;-50
2024/04/10 08:47:13;;;;;;;15.30;10.48;;;;;;;;;;1905282;75;21109;-51
2024/04/10 08:49:41;;;;;;;14.33;6.72;;;;;;;;;;1905239;75;21023;-51
2024/04/10 08:52:11;;;;;;;14.43;7.17;;;;;;;;;;1905327;74;21031;-50
2024/04/10 08:54:40;;;;;;;11.10;6.95;;;;;;;;;;1905235;75;20995;-50
2024/04/10 08:57:09;;;;;;;11.70;8.55;;;;;;;;;;1905296;75;21150;-51
2024/04/10 08:59:37;;;;;;;13.58;9.05;;;;;;;;;;1905311;75;21011;-49
2024/04/10 09:02:06;;;;;;;24.40;8.80;;;;;;;;;;1905290;75;21020;-51
2024/04/10 09:04:36;;;;;;;12.00;8.23;;;;;;;;;;1905282;75;21027;-50
2024/04/10 09:07:05;;;;;;;18.92;8.28;;;;;;;;;;1904844;74;21063;-51
2024/04/10 09:09:33;;;;;;;15.10;6.75;;;;;;;;;;1905357;75;21482;-49
2024/04/10 09:12:01;;;;;;;17.67;8.53;;;;;;;;;;1905664;75;21011;-49
2024/04/10 09:14:30;;;;;;;14.55;8.05;;;;;;;;;;1905301;75;20996;-49
2024/04/10 09:17:03;;;;;;;16.40;7.65;;;;;;;;;;1905475;75;21028;-51
2024/04/10 09:19:32;;;;;;;13.10;8.70;;;;;;;;;;1905429;75;21015;-49
2024/04/10 09:22:01;;;;;;;9.30;7.17;;;;;;;;;;1905492;75;21024;-51
2024/04/10 09:24:29;;;;;;;20.00;8.03;;;;;;;;;;1905498;75;21032;-52
2024/04/10 09:26:58;;;;;;;9.05;7.22;;;;;;;;;;1905614;75;20983;-51
2024/04/10 09:29:30;;;;;;;18.92;8.35;;;;;;;;;;1905279;75;21020;-50
2024/04/10 09:32:04;;;;;;;12.98;8.38;;;;;;;;;;1905314;75;21089;-51
2024/04/10 09:34:29;;;;;;;18.27;8.63;;;;;;;;;;1904954;74;21494;-46
2024/04/10 09:36:58;;;;;;;8.20;6.40;;;;;;;;;;1911171;74;21050;-47
2024/04/10 09:39:27;;;;;;;13.90;8.10;;;;;;;;;;1924677;74;21031;-48
2024/04/10 09:41:59;;;;;;;9.25;6.33;;;;;;;;;;1924711;74;20983;-49
2024/04/10 09:44:32;;;;;;;17.02;8.58;;;;;;;;;;1923354;74;21086;-50
2024/04/10 09:47:01;;;;;;;5.60;4.22;;;;;;;;;;1924154;74;21007;-52
2024/04/10 09:49:30;;;;;;;11.18;6.95;;;;;;;;;;1924169;74;21082;-52
2024/04/10 09:51:59;;;;;;;12.10;6.62;;;;;;;;;;1922715;74;21136;-54
2024/04/10 09:54:28;;;;;;;10.72;7.42;;;;;;;;;;1923645;74;21499;-48
2024/04/10 09:56:57;;;;;;;15.78;8.75;;;;;;;;;;1924168;74;21038;-49
2024/04/10 09:59:26;;;;;;;12.15;7.72;;;;;;;;;;1923956;74;21070;-52
2024/04/10 10:01:55;;;;;;;8.40;5.22;;;;;;;;;;1924086;74;21003;-55
2024/04/10 10:04:24;;;;;;;7.80;5.62;;;;;;;;;;1924006;74;21023;-56
2024/04/10 10:06:54;;;;;;;23.83;7.50;;;;;;;;;;1923912;74;21078;-53
2024/04/10 10:09:25;;;;;;;16.90;7.40;;;;;;;;;;1923276;74;21073;-47
2024/04/10 10:12:01;;;;;;;10.65;6.85;;;;;;;;;;1924022;74;21062;-46
2024/04/10 10:14:30;;;;;;;;;;;;;;;;;;1926763;74;21065;-46
2024/04/10 10:17:08;;;;;;;7.78;4.30;;;;;;;;;;1924067;74;20470;-46
2024/04/10 10:19:37;;;;;;;11.28;6.25;;;;;;;;;;1924050;74;21034;-47
2024/04/10 10:22:06;;;;;;;7.00;4.65;;;;;;;;;;1923917;74;21030;-47
2024/04/10 10:24:35;;;;;;;6.25;5.35;;;;;;;;;;1923982;74;21074;-45
2024/04/10 10:27:03;;;;;;;8.53;5.72;;;;;;;;;;1924040;74;21086;-45
2024/04/10 10:29:32;;;;;;;9.55;5.30;;;;;;;;;;1924099;74;21080;-45
2024/04/10 10:32:05;;;;;;;5.10;3.98;;;;;;;;;;1921851;74;21149;-47
2024/04/10 10:34:33;;;;;;;14.30;6.95;;;;;;;;;;1923833;74;21018;-45
2024/04/10 10:37:04;;;;;;;10.93;5.78;;;;;;;;;;1921542;74;21018;-45
2024/04/10 10:39:32;;;;;;;10.03;6.12;;;;;;;;;;1904681;75;21015;-46
2024/04/10 10:42:01;;;;;;;7.45;4.67;;;;;;;;;;1904742;75;21059;-46
2024/04/10 10:44:30;;;;;;;12.03;4.55;;;;;;;;;;1902983;75;21016;-46
2024/04/10 10:47:00;;;;;;;11.18;4.85;;;;;;;;;;1884807;75;21080;-46
2024/04/10 10:49:30;;;;;;;8.00;4.62;;;;;;;;;;1872404;76;21028;-43
2024/04/10 10:51:59;;;;;;;10.55;5.78;;;;;;;;;;1872242;76;21013;-48
2024/04/10 10:54:29;;;;;;;7.25;4.70;;;;;;;;;;1877353;75;21019;-51
2024/04/10 10:57:06;;;;;;;8.85;4.30;;;;;;;;;;1878515;75;21117;-47
2024/04/10 10:59:37;;;;;;;12.47;5.53;;;;;;;;;;1896077;75;21028;-48
2024/04/10 11:02:10;;;;;;;10.13;5.33;;;;;;;;;;1896034;75;20992;-49
2024/04/10 11:04:39;;;;;;;6.67;4.90;;;;;;;;;;1892549;74;21098;-49
2024/04/10 11:07:07;;;;;;;11.93;5.80;;;;;;;;;;1889983;75;20999;-51
2024/04/10 11:44:57;;;;;;;7.62;4.30;;;22.10;68.10;;;;;;1972081;72;25805;-47
2024/04/10 11:47:27;;;;;;;5.53;3.02;;;22.00;68.40;;;;;;1920965;73;21106;-54
2024/04/10 11:49:56;;;;;;;7.67;3.77;;;22.10;68.30;;;;;;1925015;73;21214;-53
2024/04/10 11:52:25;;;;;;;10.00;3.52;;;22.10;68.10;;;;;;1921112;73;21023;-45
2024/04/10 11:54:54;;;;;;;33.05;4.25;;;22.10;67.20;;;;;;1929512;73;21069;-46
2024/04/10 11:57:23;;;;;;;8.63;3.52;;;22.20;67.80;;;;;;1921115;73;20979;-46
2024/04/10 11:59:52;;;;;;;6.67;2.80;;;22.20;66.90;;;;;;1925322;73;21019;-45
2024/04/10 12:02:28;;;;;;;8.75;3.62;;;22.20;67.00;;;;;;1925456;73;20983;-48
2024/04/10 12:04:53;;;;;;;7.92;4.03;;;22.20;66.90;;;;;;1914659;74;21058;-45
2024/04/10 12:07:22;;;;;;;7.53;4.20;;;22.20;67.20;;;;;;1925350;73;21063;-50
2024/04/10 12:09:52;;;;;;;5.40;2.55;;;22.20;66.90;;;;;;1924891;73;21018;-49
2024/04/10 12:12:21;;;;;;;6.95;3.40;;;22.20;66.60;;;;;;1915400;75;21078;-51
2024/04/10 12:14:50;;;;;;;10.93;4.25;;;22.30;67.20;;;;;;1915355;75;21503;-48
2024/04/10 12:17:19;;;;;;;12.05;3.80;;;22.20;67.20;;;;;;1920637;73;21435;-50
2024/04/10 12:19:48;;;;;;;8.85;3.42;;;22.20;67.40;;;;;;1917043;73;21056;-50
2024/04/10 12:22:18;;;;;;;11.63;3.60;;;22.20;67.20;;;;;;1920455;73;21014;-52
2024/04/10 12:24:47;;;;;;;9.10;2.90;;;22.20;67.70;;;;;;1916066;74;21018;-51
2024/04/10 12:27:16;;;;;;;15.93;4.60;;;22.20;67.60;;;;;;1916426;73;21015;-52
2024/04/10 12:29:48;;;;;;;11.08;4.90;;;22.20;68.00;;;;;;1916940;75;21309;-52
2024/04/10 12:32:17;;;;;;;10.40;3.60;;;22.20;68.20;;;;;;1917264;75;21437;-52
2024/04/10 12:34:47;;;;;;;13.95;4.28;;;22.20;67.70;;;;;;1917675;75;21171;-49
2024/04/10 12:40:03;;;;;;;9.08;3.92;;;22.20;67.80;;;;;;1918306;75;21493;-50
2024/04/10 12:42:32;;;;;;;12.13;3.65;;;22.20;67.70;;;;;;1918169;75;21029;-49
2024/04/10 12:45:02;;;;;;;15.83;5.83;;;22.20;67.70;;;;;;1908889;74;21095;-50
2024/04/10 12:47:31;;;;;;;8.28;2.95;;;22.20;68.10;;;;;;1906034;75;21179;-50
2024/04/10 12:50:00;;;;;;;21.62;4.83;;;22.20;67.60;;;;;;1905998;75;21066;-49
2024/04/10 12:52:29;;;;;;;15.55;4.40;;;22.30;67.90;;;;;;1906012;75;21023;-49
2024/04/10 12:54:59;;;;;;;12.43;4.20;;;22.20;68.00;;;;;;1905710;75;21019;-49
2024/04/10 12:57:28;;;;;;;13.90;4.78;;;22.20;68.10;;;;;;1905380;75;21003;-50
2024/04/10 12:59:57;;;;;;;21.33;5.20;;;22.20;68.40;;;;;;1905301;75;21093;-50
2024/04/10 13:02:26;;;;;;;13.88;3.17;;;22.20;68.70;;;;;;1905390;75;21015;-51
2024/04/10 13:04:55;;;;;;;7.20;2.70;;;22.20;68.70;;;;;;1905456;75;21012;-50
2024/04/10 13:07:24;;;;;;;10.70;4.08;;;22.20;68.60;;;;;;1905412;75;21406;-50
2024/04/10 13:09:54;;;;;;;7.10;4.50;;;22.20;68.80;;;;;;1905351;75;21019;-51
2024/04/10 13:12:23;;;;;;;25.12;5.75;;;22.20;68.50;;;;;;1905360;75;21012;-52
2024/04/10 13:14:52;;;;;;;9.20;3.08;;;22.10;68.50;;;;;;1905407;75;20992;-49
2024/04/10 13:17:24;;;;;;;12.25;4.08;;;22.10;69.30;;;;;;1905353;75;21019;-50
2024/04/10 13:19:52;;;;;;;16.73;4.90;;;22.10;69.00;;;;;;1905378;75;21089;-49
2024/04/10 13:22:21;;;;;;;15.93;4.37;;;22.10;69.10;;;;;;1905381;75;21031;-50
2024/04/10 13:24:51;;;;;;;10.18;3.95;;;22.10;69.50;;;;;;1905378;74;21079;-51
2024/04/10 13:27:19;;;;;;;7.83;3.15;;;22.10;69.50;;;;;;1905373;75;21012;-49
2024/04/10 13:29:52;;;;;;;17.17;5.17;;;22.20;69.40;;;;;;1905353;74;21086;-50
2024/04/10 13:32:21;;;;;;;7.25;4.05;;;22.20;69.70;;;;;;1905327;75;21067;-50
2024/04/10 13:34:50;;;;;;;19.27;6.50;;;22.10;69.30;;;;;;1905385;75;21089;-50
2024/04/10 13:37:19;;;;;;;8.28;3.58;;;22.10;69.30;;;;;;1905356;75;21035;-49
2024/04/10 13:39:51;;;;;;;17.52;5.22;;;22.10;69.30;;;;;;1905441;75;21097;-50
2024/04/10 13:42:21;;;;;;;5.35;3.10;;;22.10;69.50;;;;;;1905487;75;21125;-50
2024/04/10 13:44:50;;;;;;;11.43;5.78;;;22.10;69.40;;;;;;1913051;74;21058;-49
2024/04/10 13:47:19;;;;;;;13.38;4.78;;;22.10;69.70;;;;;;1924775;74;21493;-49
2024/04/10 13:49:48;;;;;;;17.23;5.10;;;22.00;69.40;;;;;;1924702;74;20991;-49
2024/04/10 13:52:18;;;;;;;10.68;4.60;;;22.00;69.90;;;;;;1924782;74;21015;-50
2024/04/10 13:54:46;;;;;;;18.85;4.92;;;22.00;69.80;;;;;;1924640;74;21020;-50
2024/04/10 13:57:16;;;;;;;12.13;4.90;;;22.00;69.70;;;;;;1924791;74;21003;-51
2024/04/10 14:50:13;;;;;;;9.25;5.10;;;21.00;72.70;;;;;;1959071;73;25447;-52
2024/04/10 14:52:42;;;;;;;10.93;3.85;;;21.00;72.90;;;;;;1918469;75;21038;-53
2024/04/10 14:55:11;;;;;;;8.03;3.98;;;20.90;73.20;;;;;;1918247;75;21061;-52
2024/04/10 14:57:40;;;;;;;9.25;4.35;;;20.80;73.00;;;;;;1918307;75;21084;-51
2024/04/10 15:00:11;;;;;;;13.43;4.00;;;20.80;73.30;;;;;;1918305;75;21027;-51
2024/04/10 15:02:41;;;;;;;13.83;5.67;;;20.70;73.40;;;;;;1918453;75;21076;-51
2024/04/10 15:05:10;;;;;;;7.78;3.42;;;20.60;73.80;;;;;;1918401;75;21042;-51
2024/04/10 15:07:39;;;;;;;13.98;4.30;;;20.60;74.00;;;;;;1918410;75;21076;-52
2024/04/10 15:10:10;;;;;;;15.23;4.87;;;20.50;74.80;;;;;;1918240;75;20995;-51
2024/04/10 15:12:38;;;;;;;18.12;5.05;;;;;;;;;;1918318;74;21023;-52
2024/04/10 15:15:08;;;;;;;10.70;3.80;;;;;;;;;;1918243;75;21097;-53
2024/04/10 15:17:36;;;;;;;6.92;3.00;;;;;;;;;;1918474;75;21086;-52
2024/04/10 15:20:11;;;;;;;16.40;4.33;;;;;;;;;;1918364;75;21030;-52
2024/04/10 15:22:38;;;;;;;12.13;4.85;;;;;;;;;;1916495;74;21108;-53
2024/04/10 15:25:08;;;;;;;5.95;3.92;;;;;;;;;;1918429;75;21019;-53
2024/04/10 15:27:37;;;;;;;6.87;3.98;;;;;;;;;;1918398;75;21007;-52
2024/04/10 15:30:06;;;;;;;4.70;3.42;;;;;;;;;;1918327;75;21019;-54
2024/04/10 15:32:35;;;;;;;7.33;3.77;;;;;;;;;;1918293;75;21011;-54
2024/04/10 15:35:04;;;;;;;8.68;3.72;;;;;;;;;;1918358;75;21019;-53
2024/04/10 15:37:32;;;;;;;19.50;4.17;;;;;;;;;;1918314;75;21050;-54
2024/04/10 15:40:01;;;;;;;14.63;5.12;;;;;;;;;;1918239;75;20995;-53
2024/04/10 15:42:29;;;;;;;14.78;6.92;;;;;;;;;;1918324;75;21019;-53
2024/04/10 15:45:02;;;;;;;9.05;6.15;;;;;;;;;;1918188;74;21092;-52
2024/04/10 15:47:31;;;;;;;10.45;4.40;;;;;;;;;;1918284;75;20999;-53
2024/04/10 15:49:59;;;;;;;18.05;5.85;;;;;;;;;;1923013;74;21062;-53